createdAt,value
2018-10-21T00:00:34.900Z,1.04
2018-10-21T00:01:35.073Z,0.39
2018-10-21T00:02:35.206Z,0.32
2018-10-21T00:03:35.338Z,0.96
2018-10-21T00:04:35.533Z,0.87
2018-10-21T00:05:35.673Z,1.44
2018-10-21T00:06:35.842Z,0.56
2018-10-21T00:07:35.934Z,1.38
2018-10-21T00:08:36.080Z,0.87
2018-10-21T00:09:36.160Z,0.91
2018-10-21T00:10:36.280Z,0.88
2018-10-21T00:11:36.360Z,0.82
2018-10-21T00:12:36.645Z,0.98
2018-10-21T00:13:37.064Z,0.36
2018-10-21T00:14:36.984Z,0.68
2018-10-21T00:15:37.474Z,0.76
2018-10-21T00:16:38.032Z,0.94
2018-10-21T00:17:37.807Z,0.89
2018-10-21T00:18:38.400Z,0.27
2018-10-21T00:19:38.517Z,0.55
2018-10-21T00:20:38.335Z,1.07
2018-10-21T00:21:38.950Z,0.67
2018-10-21T00:22:39.028Z,0.41
2018-10-21T00:23:39.119Z,0.47
2018-10-21T00:24:39.134Z,0.34
2018-10-21T00:25:39.217Z,0.69
2018-10-21T00:26:39.083Z,0.21
2018-10-21T00:27:39.374Z,0.63
2018-10-21T00:29:39.667Z,0.68
2018-10-21T00:30:39.945Z,0.21
2018-10-21T00:31:40.236Z,0.00
2018-10-21T00:32:40.528Z,0.34
2018-10-21T00:33:40.765Z,0.28
2018-10-21T00:34:41.053Z,0.63
2018-10-21T00:35:41.465Z,0.14
2018-10-21T00:36:41.736Z,0.01
2018-10-21T00:37:42.027Z,0.00
2018-10-21T00:38:42.510Z,0.00
2018-10-21T00:39:43.093Z,0.00
2018-10-21T00:40:42.874Z,0.00
2018-10-21T00:41:43.155Z,0.00
2018-10-21T00:42:43.553Z,0.00
2018-10-21T00:43:43.983Z,0.00
2018-10-21T00:44:44.322Z,0.01
2018-10-21T00:45:44.611Z,0.00
2018-10-21T00:46:44.940Z,0.00
2018-10-21T00:47:45.266Z,0.00
2018-10-21T00:48:45.746Z,0.00
2018-10-21T00:49:46.017Z,0.00
2018-10-21T00:50:46.292Z,0.00
2018-10-21T00:51:46.592Z,0.00
2018-10-21T00:52:46.889Z,0.00
2018-10-21T00:53:47.167Z,0.00
2018-10-21T00:54:47.486Z,0.00
2018-10-21T00:55:47.805Z,0.00
2018-10-21T00:56:48.305Z,0.00
2018-10-21T00:57:48.309Z,0.00
2018-10-21T00:58:48.375Z,0.00
2018-10-21T00:59:48.412Z,0.00
2018-10-21T01:00:48.503Z,0.00
2018-10-21T01:01:48.652Z,0.00
2018-10-21T01:02:48.842Z,0.00
2018-10-21T01:03:48.960Z,0.00
2018-10-21T01:04:49.080Z,0.00
2018-10-21T01:05:49.264Z,0.00
2018-10-21T01:06:49.436Z,0.01
2018-10-21T01:07:49.595Z,0.00
2018-10-21T01:08:49.793Z,0.00
2018-10-21T01:09:49.918Z,0.00
2018-10-21T01:10:50.091Z,0.00
2018-10-21T01:11:50.238Z,0.00
2018-10-21T01:12:50.389Z,0.00
2018-10-21T01:13:50.546Z,0.00
2018-10-21T01:14:50.726Z,0.00
2018-10-21T01:15:50.928Z,0.00
2018-10-21T01:16:51.111Z,0.00
2018-10-21T01:17:51.189Z,0.00
2018-10-21T01:18:51.356Z,0.01
2018-10-21T01:19:51.508Z,0.00
2018-10-21T01:20:51.629Z,0.00
2018-10-21T01:21:51.732Z,0.00
2018-10-21T01:22:51.912Z,0.00
2018-10-21T01:23:52.249Z,0.00
2018-10-21T01:24:52.353Z,0.00
2018-10-21T01:25:52.435Z,0.00
2018-10-21T01:26:52.519Z,0.00
2018-10-21T01:27:52.602Z,0.00
2018-10-21T01:28:52.699Z,0.00
2018-10-21T01:29:52.777Z,0.00
2018-10-21T01:30:52.863Z,0.00
2018-10-21T01:31:52.946Z,0.00
2018-10-21T01:32:53.015Z,0.00
2018-10-21T01:33:53.106Z,0.00
2018-10-21T01:34:53.203Z,0.00
2018-10-21T01:35:53.302Z,0.00
2018-10-21T01:36:53.523Z,0.00
2018-10-21T01:37:53.567Z,0.00
2018-10-21T01:38:53.574Z,0.00
2018-10-21T01:39:53.651Z,0.45
2018-10-21T01:41:54.042Z,0.34
2018-10-21T01:42:54.332Z,0.04
2018-10-21T01:43:54.313Z,0.00
2018-10-21T01:44:54.633Z,0.00
2018-10-21T01:45:54.892Z,0.00
2018-10-21T01:46:54.896Z,0.04
2018-10-21T01:47:55.296Z,0.00
2018-10-21T01:48:55.161Z,0.03
2018-10-21T01:49:55.688Z,0.00
2018-10-21T01:50:55.489Z,0.00
2018-10-21T01:51:55.877Z,0.00
2018-10-21T01:52:56.156Z,0.00
2018-10-21T01:53:56.468Z,0.00
2018-10-21T01:54:56.761Z,0.00
2018-10-21T01:55:57.104Z,0.00
2018-10-21T01:56:57.431Z,0.00
2018-10-21T01:57:57.680Z,0.00
2018-10-21T01:58:57.762Z,0.00
2018-10-21T01:59:58.067Z,0.00
2018-10-21T02:00:58.355Z,0.20
2018-10-21T02:01:58.781Z,0.01
2018-10-21T02:02:59.182Z,0.01
2018-10-21T02:03:59.204Z,0.08
2018-10-21T02:04:59.504Z,0.01
2018-10-21T02:05:59.792Z,0.11
2018-10-21T02:07:00.092Z,0.03
2018-10-21T02:08:00.353Z,0.21
2018-10-21T02:09:00.766Z,0.08
2018-10-21T02:10:01.069Z,0.00
2018-10-21T02:11:01.564Z,0.00
2018-10-21T02:12:01.919Z,0.00
2018-10-21T02:13:02.548Z,0.00
2018-10-21T02:14:02.312Z,0.00
2018-10-21T02:15:02.864Z,0.00
2018-10-21T02:16:03.339Z,0.03
2018-10-21T02:17:03.977Z,0.07
2018-10-21T02:18:04.140Z,0.27
2018-10-21T02:19:04.292Z,0.13
2018-10-21T02:20:04.447Z,0.08
2018-10-21T02:21:04.806Z,0.00
2018-10-21T02:22:04.909Z,0.01
2018-10-21T02:24:05.168Z,0.00
2018-10-21T02:25:05.351Z,0.01
2018-10-21T02:26:05.737Z,0.00
2018-10-21T02:27:05.872Z,0.00
2018-10-21T02:28:05.959Z,0.20
2018-10-21T02:29:06.053Z,0.01
2018-10-21T02:30:06.202Z,0.01
2018-10-21T02:31:06.427Z,0.00
2018-10-21T02:32:06.572Z,0.00
2018-10-21T02:33:06.792Z,0.00
2018-10-21T02:34:06.995Z,0.00
2018-10-21T02:35:07.104Z,0.00
2018-10-21T02:36:07.449Z,0.00
2018-10-21T02:37:07.512Z,0.00
2018-10-21T02:38:07.591Z,0.00
2018-10-21T02:39:07.748Z,0.00
2018-10-21T02:40:07.763Z,0.00
2018-10-21T02:41:07.845Z,0.01
2018-10-21T02:42:08.000Z,0.00
2018-10-21T02:43:07.797Z,0.08
2018-10-21T02:44:08.373Z,0.39
2018-10-21T02:45:08.905Z,0.07
2018-10-21T02:46:08.660Z,0.01
2018-10-21T02:47:09.348Z,0.01
2018-10-21T02:48:09.420Z,0.00
2018-10-21T02:49:09.447Z,0.08
2018-10-21T02:50:09.821Z,0.03
2018-10-21T02:51:09.844Z,0.30
2018-10-21T02:52:09.780Z,0.13
2018-10-21T02:53:10.056Z,0.06
2018-10-21T02:54:10.353Z,0.00
2018-10-21T02:55:10.706Z,0.18
2018-10-21T02:56:11.221Z,0.00
2018-10-21T02:57:11.221Z,0.00
2018-10-21T02:58:11.433Z,0.01
2018-10-21T02:59:11.802Z,0.00
2018-10-21T03:00:12.100Z,0.38
2018-10-21T03:01:12.436Z,0.15
2018-10-21T03:02:12.749Z,0.01
2018-10-21T03:03:13.091Z,0.00
2018-10-21T03:04:13.628Z,0.00
2018-10-21T03:05:13.550Z,0.01
2018-10-21T03:06:13.848Z,0.04
2018-10-21T03:07:14.149Z,0.04
2018-10-21T03:08:14.430Z,0.00
2018-10-21T03:09:14.875Z,0.00
2018-10-21T03:10:15.404Z,0.00
2018-10-21T03:11:15.188Z,0.00
2018-10-21T03:12:15.482Z,0.01
2018-10-21T03:13:15.779Z,0.15
2018-10-21T03:14:16.379Z,0.25
2018-10-21T03:15:16.363Z,0.08
2018-10-21T03:16:16.590Z,0.17
2018-10-21T03:17:16.901Z,0.08
2018-10-21T03:18:17.392Z,0.00
2018-10-21T03:19:17.764Z,0.03
2018-10-21T03:20:18.141Z,0.00
2018-10-21T03:21:18.866Z,0.04
2018-10-21T03:22:18.848Z,0.31
2018-10-21T03:23:18.990Z,0.34
2018-10-21T03:24:19.131Z,0.49
2018-10-21T03:25:19.255Z,0.38
2018-10-21T03:26:19.418Z,1.20
2018-10-21T03:27:19.676Z,0.30
2018-10-21T03:28:19.719Z,0.06
2018-10-21T03:29:19.885Z,0.48
2018-10-21T03:30:20.052Z,0.10
2018-10-21T03:31:20.226Z,0.01
2018-10-21T03:32:20.408Z,0.17
2018-10-21T03:33:20.794Z,0.03
2018-10-21T03:34:20.774Z,0.00
2018-10-21T03:35:20.939Z,0.07
2018-10-21T03:36:21.168Z,0.00
2018-10-21T03:37:21.300Z,0.00
2018-10-21T03:38:21.422Z,0.01
2018-10-21T03:39:21.487Z,0.06
2018-10-21T03:40:21.626Z,0.17
2018-10-21T03:41:21.707Z,0.31
2018-10-21T03:42:21.922Z,0.13
2018-10-21T03:43:21.994Z,0.10
2018-10-21T03:44:22.199Z,0.11
2018-10-21T03:45:22.293Z,0.01
2018-10-21T03:46:22.415Z,0.18
2018-10-21T03:47:22.562Z,0.18
2018-10-21T03:48:22.668Z,0.34
2018-10-21T03:49:22.786Z,0.15
2018-10-21T03:50:22.905Z,0.10
2018-10-21T03:51:23.142Z,0.01
2018-10-21T03:52:23.249Z,0.01
2018-10-21T03:53:23.019Z,0.00
2018-10-21T03:54:23.708Z,0.00
2018-10-21T03:55:23.813Z,0.00
2018-10-21T03:56:23.839Z,0.01
2018-10-21T03:57:23.950Z,0.01
2018-10-21T03:58:24.153Z,0.18
2018-10-21T03:59:24.060Z,0.31
2018-10-21T04:00:24.392Z,0.01
2018-10-21T04:01:24.705Z,0.01
2018-10-21T04:02:25.103Z,0.00
2018-10-21T04:03:25.394Z,0.00
2018-10-21T04:04:25.994Z,0.00
2018-10-21T04:05:25.934Z,0.54
2018-10-21T04:06:26.214Z,0.07
2018-10-21T04:07:26.501Z,0.01
2018-10-21T04:08:26.961Z,0.00
2018-10-21T04:09:27.287Z,0.00
2018-10-21T04:10:27.725Z,0.00
2018-10-21T04:11:28.132Z,0.00
2018-10-21T04:12:28.469Z,0.00
2018-10-21T04:13:28.777Z,0.00
2018-10-21T04:14:29.328Z,0.00
2018-10-21T04:15:29.133Z,0.00
2018-10-21T04:16:29.456Z,0.00
2018-10-21T04:17:29.905Z,0.01
2018-10-21T04:18:30.209Z,0.00
2018-10-21T04:19:30.503Z,0.01
2018-10-21T04:20:30.777Z,0.00
2018-10-21T04:21:31.079Z,0.00
2018-10-21T04:22:31.392Z,0.00
2018-10-21T04:23:31.877Z,0.00
2018-10-21T04:24:32.165Z,0.00
2018-10-21T04:25:32.831Z,0.00
2018-10-21T04:26:32.750Z,0.00
2018-10-21T04:27:33.310Z,0.00
2018-10-21T04:28:33.373Z,0.01
2018-10-21T04:29:33.530Z,0.00
2018-10-21T04:30:33.670Z,0.00
2018-10-21T04:31:34.005Z,0.00
2018-10-21T04:32:34.199Z,0.00
2018-10-21T04:33:34.648Z,0.00
2018-10-21T04:34:35.047Z,0.00
2018-10-21T04:35:35.342Z,0.00
2018-10-21T04:36:35.482Z,0.00
2018-10-21T04:37:35.673Z,0.00
2018-10-21T04:38:36.116Z,0.00
2018-10-21T04:39:36.463Z,0.01
2018-10-21T04:40:36.623Z,0.32
2018-10-21T04:41:36.732Z,0.04
2018-10-21T04:42:36.837Z,0.24
2018-10-21T04:43:36.620Z,0.01
2018-10-21T04:44:37.231Z,0.07
2018-10-21T04:45:37.356Z,0.01
2018-10-21T04:47:37.459Z,0.00
2018-10-21T04:48:37.544Z,0.00
2018-10-21T04:49:37.619Z,0.00
2018-10-21T04:50:37.749Z,0.01
2018-10-21T04:51:37.831Z,0.06
2018-10-21T04:53:37.946Z,0.01
2018-10-21T04:54:37.950Z,0.11
2018-10-21T04:55:38.627Z,0.01
2018-10-21T04:56:38.709Z,0.11
2018-10-21T04:57:38.799Z,0.03
2018-10-21T04:58:38.870Z,0.00
2018-10-21T04:59:38.968Z,0.58
2018-10-21T05:00:39.108Z,0.61
2018-10-21T05:01:39.152Z,0.45
2018-10-21T05:02:39.045Z,0.28
2018-10-21T05:03:39.667Z,0.21
2018-10-21T05:04:39.711Z,0.63
2018-10-21T05:05:39.570Z,0.45
2018-10-21T05:06:39.865Z,0.34
2018-10-21T05:07:40.241Z,0.48
2018-10-21T05:08:40.484Z,0.27
2018-10-21T05:09:41.031Z,0.01
2018-10-21T05:10:40.975Z,0.00
2018-10-21T05:11:41.267Z,0.00
2018-10-21T05:12:41.535Z,0.34
2018-10-21T05:13:41.949Z,0.59
2018-10-21T05:14:42.273Z,0.50
2018-10-21T05:15:42.923Z,0.70
2018-10-21T05:16:42.871Z,0.49
2018-10-21T05:17:43.100Z,0.55
2018-10-21T05:18:43.393Z,0.37
2018-10-21T05:19:43.687Z,0.49
2018-10-21T05:20:44.005Z,0.42
2018-10-21T05:21:44.293Z,0.08
2018-10-21T05:22:44.597Z,0.01
2018-10-21T05:23:44.931Z,0.01
2018-10-21T05:24:45.184Z,0.15
2018-10-21T05:25:45.779Z,0.14
2018-10-21T05:26:45.599Z,0.54
2018-10-21T05:27:45.892Z,0.51
2018-10-21T05:28:46.375Z,0.69
2018-10-21T05:29:46.691Z,0.55
2018-10-21T05:30:47.006Z,0.59
2018-10-21T05:31:47.584Z,0.37
2018-10-21T05:32:47.354Z,0.04
2018-10-21T05:33:47.729Z,0.01
2018-10-21T05:34:48.251Z,0.01
2018-10-21T05:35:48.373Z,0.63
2018-10-21T05:36:48.385Z,0.42
2018-10-21T05:37:48.503Z,0.95
2018-10-21T05:38:48.626Z,0.79
2018-10-21T05:39:48.767Z,0.68
2018-10-21T05:40:48.964Z,0.53
2018-10-21T05:41:49.143Z,0.51
2018-10-21T05:42:49.348Z,0.63
2018-10-21T05:43:49.771Z,0.27
2018-10-21T05:44:49.958Z,0.23
2018-10-21T05:45:50.106Z,0.48
2018-10-21T05:46:50.405Z,0.44
2018-10-21T05:47:50.670Z,0.08
2018-10-21T05:48:50.849Z,0.24
2018-10-21T05:49:50.959Z,0.34
2018-10-21T05:50:51.056Z,0.72
2018-10-21T05:51:51.164Z,0.94
2018-10-21T05:52:51.270Z,0.69
2018-10-21T05:53:51.400Z,0.72
2018-10-21T05:54:51.506Z,0.49
2018-10-21T05:55:51.675Z,0.70
2018-10-21T05:56:51.782Z,0.73
2018-10-21T05:57:51.955Z,0.56
2018-10-21T05:58:52.037Z,0.11
2018-10-21T05:59:52.208Z,0.07
2018-10-21T06:00:52.332Z,0.15
2018-10-21T06:01:52.463Z,0.32
2018-10-21T06:02:52.616Z,0.10
2018-10-21T06:03:52.642Z,0.01
2018-10-21T06:04:52.729Z,0.10
2018-10-21T06:05:53.235Z,0.00
2018-10-21T06:06:53.324Z,0.13
2018-10-21T06:07:53.431Z,0.00
2018-10-21T06:08:53.579Z,0.06
2018-10-21T06:09:53.796Z,0.08
2018-10-21T06:10:53.840Z,0.01
2018-10-21T06:11:53.967Z,0.00
2018-10-21T06:12:54.013Z,0.04
2018-10-21T06:13:53.946Z,0.11
2018-10-21T06:14:54.388Z,0.21
2018-10-21T06:15:54.815Z,0.29
2018-10-21T06:16:55.125Z,0.15
2018-10-21T06:17:55.075Z,0.49
2018-10-21T06:18:55.365Z,1.07
2018-10-21T06:19:55.443Z,0.61
2018-10-21T06:20:55.925Z,0.63
2018-10-21T06:21:55.793Z,0.70
2018-10-21T06:22:56.133Z,0.86
2018-10-21T06:23:56.553Z,0.72
2018-10-21T06:24:56.837Z,0.31
2018-10-21T06:25:57.470Z,0.34
2018-10-21T06:26:57.405Z,0.84
2018-10-21T06:27:57.800Z,0.66
2018-10-21T06:29:58.127Z,0.48
2018-10-21T06:30:58.466Z,1.15
2018-10-21T06:31:58.778Z,0.94
2018-10-21T06:32:59.227Z,1.03
2018-10-21T06:33:59.470Z,1.14
2018-10-21T06:34:59.814Z,1.10
2018-10-21T06:36:00.445Z,0.81
2018-10-21T06:37:00.274Z,0.83
2018-10-21T06:38:00.540Z,0.81
2018-10-21T06:39:01.014Z,1.33
2018-10-21T06:40:00.956Z,1.01
2018-10-21T06:41:01.110Z,1.37
2018-10-21T06:42:01.194Z,1.59
2018-10-21T06:43:01.799Z,1.62
2018-10-21T06:44:01.847Z,1.36
2018-10-21T06:45:02.190Z,1.10
2018-10-21T06:46:02.306Z,1.27
2018-10-21T06:47:02.162Z,0.70
2018-10-21T06:48:02.791Z,0.92
2018-10-21T06:49:02.603Z,1.32
2018-10-21T06:50:03.355Z,1.72
2018-10-21T06:51:03.445Z,1.40
2018-10-21T06:52:03.577Z,1.35
2018-10-21T06:53:03.759Z,0.99
2018-10-21T06:54:03.919Z,1.34
2018-10-21T06:55:06.847Z,1.66
2018-10-21T06:56:04.503Z,0.81
2018-10-21T06:57:04.752Z,0.37
2018-10-21T06:58:04.842Z,1.23
2018-10-21T06:59:05.047Z,1.11
2018-10-21T07:00:05.228Z,1.58
2018-10-21T07:01:05.148Z,1.56
2018-10-21T07:02:05.980Z,2.72
2018-10-21T07:03:06.152Z,1.80
2018-10-21T07:04:06.387Z,1.38
2018-10-21T07:05:06.562Z,2.18
2018-10-21T07:06:06.913Z,1.53
2018-10-21T07:07:06.914Z,1.30
2018-10-21T07:08:07.073Z,1.68
2018-10-21T07:09:07.290Z,1.17
2018-10-21T07:10:07.545Z,0.65
2018-10-21T07:11:07.561Z,1.32
2018-10-21T07:12:07.539Z,2.59
2018-10-21T07:13:08.025Z,1.60
2018-10-21T07:14:08.482Z,2.27
2018-10-21T07:15:08.830Z,0.77
2018-10-21T07:16:09.778Z,1.43
2018-10-21T07:17:09.720Z,0.97
2018-10-21T07:18:09.782Z,0.80
2018-10-21T07:19:09.574Z,1.08
2018-10-21T07:20:09.865Z,1.49
2018-10-21T07:21:10.235Z,1.15
2018-10-21T07:22:10.678Z,1.49
2018-10-21T07:23:10.896Z,1.12
2018-10-21T07:24:11.419Z,1.03
2018-10-21T07:25:11.209Z,1.35
2018-10-21T07:26:11.774Z,1.17
2018-10-21T07:27:11.547Z,1.57
2018-10-21T07:28:11.988Z,1.00
2018-10-21T07:29:12.331Z,1.92
2018-10-21T07:30:12.878Z,1.36
2018-10-21T07:31:12.702Z,2.12
2018-10-21T07:32:13.012Z,1.07
2018-10-21T07:33:13.298Z,1.73
2018-10-21T07:34:13.791Z,2.05
2018-10-21T07:35:14.348Z,1.43
2018-10-21T07:36:14.413Z,1.69
2018-10-21T07:37:14.271Z,0.41
2018-10-21T07:38:14.551Z,0.88
2018-10-21T07:39:14.854Z,1.04
2018-10-21T07:40:15.527Z,1.50
2018-10-21T07:41:15.276Z,0.08
2018-10-21T07:42:15.593Z,0.06
2018-10-21T07:43:15.897Z,0.17
2018-10-21T07:44:16.279Z,0.45
2018-10-21T07:45:16.877Z,0.55
2018-10-21T07:46:17.133Z,0.79
2018-10-21T07:47:17.360Z,1.81
2018-10-21T07:48:17.671Z,1.47
2018-10-21T07:49:18.285Z,1.63
2018-10-21T07:50:18.791Z,1.49
2018-10-21T07:51:18.952Z,2.01
2018-10-21T07:52:19.141Z,1.32
2018-10-21T07:53:19.535Z,0.94
2018-10-21T07:54:19.707Z,2.58
2018-10-21T07:55:19.946Z,1.92
2018-10-21T07:56:20.042Z,0.70
2018-10-21T07:57:20.177Z,1.48
2018-10-21T07:58:20.399Z,2.18
2018-10-21T07:59:20.565Z,1.67
2018-10-21T08:00:20.743Z,1.90
2018-10-21T08:01:21.029Z,2.00
2018-10-21T08:02:21.055Z,1.54
2018-10-21T08:03:21.182Z,1.63
2018-10-21T08:04:21.291Z,1.68
2018-10-21T08:05:21.395Z,1.13
2018-10-21T08:06:21.807Z,0.80
2018-10-21T08:07:22.203Z,1.00
2018-10-21T08:08:22.569Z,2.13
2018-10-21T08:09:22.715Z,1.81
2018-10-21T08:10:23.814Z,2.41
2018-10-21T08:11:23.812Z,1.35
2018-10-21T08:12:24.223Z,2.47
2018-10-21T08:13:23.687Z,2.29
2018-10-21T08:14:24.092Z,2.59
2018-10-21T08:15:24.326Z,2.54
2018-10-21T08:16:24.352Z,2.45
2018-10-21T08:17:24.394Z,2.86
2018-10-21T08:18:24.705Z,2.45
2018-10-21T08:19:24.986Z,1.40
2018-10-21T08:20:25.613Z,1.65
2018-10-21T08:21:25.443Z,1.42
2018-10-21T08:22:25.883Z,2.08
2018-10-21T08:23:26.193Z,2.06
2018-10-21T08:24:26.753Z,1.36
2018-10-21T08:25:26.528Z,1.17
2018-10-21T08:26:27.050Z,2.48
2018-10-21T08:27:27.014Z,1.57
2018-10-21T08:28:27.128Z,1.20
2018-10-21T08:29:27.481Z,1.12
2018-10-21T08:30:27.770Z,1.80
2018-10-21T08:31:28.090Z,1.76
2018-10-21T08:32:28.381Z,0.91
2018-10-21T08:33:28.673Z,1.81
2018-10-21T08:34:28.998Z,2.40
2018-10-21T08:35:29.409Z,1.73
2018-10-21T08:36:29.740Z,2.39
2018-10-21T08:37:30.375Z,1.18
2018-10-21T08:38:30.185Z,0.59
2018-10-21T08:39:30.476Z,1.78
2018-10-21T08:40:30.768Z,1.27
2018-10-21T08:41:31.189Z,2.12
2018-10-21T08:42:31.534Z,2.37
2018-10-21T08:43:31.904Z,1.59
2018-10-21T08:44:32.267Z,2.60
2018-10-21T08:45:32.630Z,2.20
2018-10-21T08:46:33.068Z,1.14
2018-10-21T08:47:33.627Z,1.28
2018-10-21T08:48:33.845Z,2.21
2018-10-21T08:49:34.045Z,2.00
2018-10-21T08:50:34.184Z,2.24
2018-10-21T08:51:34.381Z,2.12
2018-10-21T08:52:34.553Z,1.97
2018-10-21T08:53:34.797Z,0.37
2018-10-21T08:54:34.931Z,1.29
2018-10-21T08:55:35.095Z,1.45
2018-10-21T08:56:35.306Z,2.24
2018-10-21T08:57:35.473Z,0.75
2018-10-21T08:58:35.707Z,0.56
2018-10-21T08:59:35.924Z,0.84
2018-10-21T09:00:36.076Z,1.00
2018-10-21T09:01:36.266Z,0.60
2018-10-21T09:02:36.413Z,1.25
2018-10-21T09:03:36.537Z,2.27
2018-10-21T09:04:36.681Z,1.99
2018-10-21T09:05:36.823Z,1.42
2018-10-21T09:06:36.966Z,1.39
2018-10-21T09:07:37.129Z,0.77
2018-10-21T09:08:37.306Z,0.11
2018-10-21T09:09:37.368Z,0.99
2018-10-21T09:10:37.618Z,0.73
2018-10-21T09:11:37.610Z,0.65
2018-10-21T09:12:37.945Z,1.73
2018-10-21T09:13:38.114Z,0.96
2018-10-21T09:14:38.202Z,1.14
2018-10-21T09:15:38.288Z,1.74
2018-10-21T09:16:38.168Z,2.47
2018-10-21T09:17:38.741Z,1.91
2018-10-21T09:18:39.033Z,1.81
2018-10-21T09:19:39.287Z,1.94
2018-10-21T09:20:39.238Z,1.74
2018-10-21T09:21:39.574Z,0.70
2018-10-21T09:22:40.019Z,0.88
2018-10-21T09:23:40.525Z,0.67
2018-10-21T09:24:41.082Z,1.36
2018-10-21T09:25:40.870Z,1.58
2018-10-21T09:26:41.225Z,2.09
2018-10-21T09:27:41.832Z,2.35
2018-10-21T09:28:41.855Z,1.52
2018-10-21T09:29:42.421Z,1.84
2018-10-21T09:30:42.235Z,2.50
2018-10-21T09:31:42.517Z,1.63
2018-10-21T09:32:43.044Z,1.74
2018-10-21T09:33:42.904Z,1.44
2018-10-21T09:34:43.245Z,0.66
2018-10-21T09:35:43.675Z,0.84
2018-10-21T09:36:43.977Z,1.48
2018-10-21T09:37:44.393Z,2.39
2018-10-21T09:38:44.359Z,3.11
2018-10-21T09:39:44.656Z,2.32
2018-10-21T09:40:44.961Z,1.71
2018-10-21T09:41:45.241Z,1.35
2018-10-21T09:42:45.583Z,1.78
2018-10-21T09:43:45.970Z,2.94
2018-10-21T09:44:46.253Z,3.09
2018-10-21T09:45:46.548Z,1.88
2018-10-21T09:46:46.846Z,3.26
2018-10-21T09:47:47.153Z,1.86
2018-10-21T09:48:47.512Z,2.06
2018-10-21T09:49:47.781Z,2.20
2018-10-21T09:50:48.263Z,3.24
2018-10-21T09:51:48.920Z,1.88
2018-10-21T09:52:49.108Z,1.65
2018-10-21T09:53:49.266Z,1.34
2018-10-21T09:54:49.431Z,1.03
2018-10-21T09:55:49.573Z,1.00
2018-10-21T09:56:49.734Z,0.85
2018-10-21T09:57:49.847Z,1.06
2018-10-21T09:58:50.056Z,1.45
2018-10-21T09:59:50.208Z,0.62
2018-10-21T10:00:50.400Z,0.62
2018-10-21T10:01:50.672Z,1.01
2018-10-21T10:02:51.014Z,1.29
2018-10-21T10:04:51.483Z,2.48
2018-10-21T10:05:51.703Z,1.47
2018-10-21T10:06:51.852Z,1.23
2018-10-21T10:07:52.046Z,0.58
2018-10-21T10:08:52.463Z,0.21
2018-10-21T10:09:52.546Z,0.80
2018-10-21T10:10:52.729Z,1.59
2018-10-21T10:11:52.804Z,1.68
2018-10-21T10:12:52.893Z,2.27
2018-10-21T10:13:52.993Z,1.66
2018-10-21T10:14:53.091Z,1.54
2018-10-21T10:15:53.213Z,1.31
2018-10-21T10:16:53.297Z,1.28
2018-10-21T10:17:53.387Z,1.08
2018-10-21T10:18:53.481Z,1.45
2018-10-21T10:19:53.785Z,1.68
2018-10-21T10:20:53.990Z,0.49
2018-10-21T10:21:54.001Z,0.48
2018-10-21T10:22:54.037Z,1.91
2018-10-21T10:23:54.310Z,2.56
2018-10-21T10:24:54.230Z,1.28
2018-10-21T10:25:54.188Z,2.50
2018-10-21T10:26:54.465Z,3.15
2018-10-21T10:27:55.396Z,1.95
2018-10-21T10:28:55.215Z,0.97
2018-10-21T10:29:55.701Z,2.06
2018-10-21T10:30:56.008Z,1.64
2018-10-21T10:31:56.355Z,1.91
2018-10-21T10:32:56.676Z,2.35
2018-10-21T10:33:57.022Z,2.18
2018-10-21T10:34:57.412Z,2.65
2018-10-21T10:35:57.784Z,1.85
2018-10-21T10:36:58.227Z,0.72
2018-10-21T10:37:58.329Z,2.20
2018-10-21T10:38:58.121Z,2.29
2018-10-21T10:39:58.485Z,2.57
2018-10-21T10:40:58.995Z,1.97
2018-10-21T10:41:58.861Z,2.24
2018-10-21T10:42:59.100Z,0.96
2018-10-21T10:43:59.492Z,1.46
2018-10-21T10:44:59.760Z,1.01
2018-10-21T10:46:00.204Z,1.84
2018-10-21T10:47:00.564Z,1.32
2018-10-21T10:48:00.871Z,1.21
2018-10-21T10:49:01.244Z,0.55
2018-10-21T10:50:01.933Z,1.04
2018-10-21T10:51:02.252Z,0.69
2018-10-21T10:52:02.595Z,0.62
2018-10-21T10:53:02.958Z,0.39
2018-10-21T10:54:03.719Z,0.97
2018-10-21T10:55:03.964Z,1.62
2018-10-21T10:56:04.090Z,1.69
2018-10-21T10:57:04.271Z,1.16
2018-10-21T10:58:04.629Z,1.24
2018-10-21T10:59:04.750Z,1.11
2018-10-21T11:00:05.033Z,2.34
2018-10-21T11:01:05.303Z,2.28
2018-10-21T11:02:05.452Z,2.47
2018-10-21T11:03:05.626Z,1.51
2018-10-21T11:04:05.764Z,0.75
2018-10-21T11:05:06.194Z,1.39
2018-10-21T11:06:06.054Z,1.56
2018-10-21T11:07:06.307Z,1.10
2018-10-21T11:08:06.452Z,0.73
2018-10-21T11:09:06.844Z,0.98
2018-10-21T11:10:07.212Z,1.01
2018-10-21T11:11:07.209Z,0.89
2018-10-21T11:12:07.325Z,0.28
2018-10-21T11:13:07.466Z,0.66
2018-10-21T11:14:07.486Z,0.79
2018-10-21T11:15:07.634Z,1.02
2018-10-21T11:16:07.948Z,0.98
2018-10-21T11:17:07.939Z,1.51
2018-10-21T11:18:08.546Z,0.66
2018-10-21T11:19:08.759Z,1.42
2018-10-21T11:20:08.465Z,0.66
2018-10-21T11:21:09.055Z,0.49
2018-10-21T11:22:09.167Z,1.20
2018-10-21T11:23:08.947Z,2.24
2018-10-21T11:24:09.467Z,1.92
2018-10-21T11:25:09.756Z,1.44
2018-10-21T11:26:09.802Z,1.08
2018-10-21T11:27:09.629Z,1.03
2018-10-21T11:28:10.006Z,1.30
2018-10-21T11:29:10.570Z,0.88
2018-10-21T11:30:10.444Z,0.79
2018-10-21T11:31:10.870Z,1.00
2018-10-21T11:32:11.067Z,0.69
2018-10-21T11:33:11.503Z,0.76
2018-10-21T11:34:11.865Z,0.34
2018-10-21T11:35:12.122Z,0.10
2018-10-21T11:36:12.426Z,1.50
2018-10-21T11:37:12.955Z,2.60
2018-10-21T11:38:13.132Z,1.80
2018-10-21T11:39:13.425Z,1.15
2018-10-21T11:40:13.876Z,1.53
2018-10-21T11:41:14.131Z,0.80
2018-10-21T11:42:14.452Z,1.78
2018-10-21T11:43:14.842Z,1.17
2018-10-21T11:44:15.022Z,1.21
2018-10-21T11:45:15.627Z,2.15
2018-10-21T11:46:15.507Z,1.04
2018-10-21T11:47:15.735Z,0.90
2018-10-21T11:48:16.029Z,1.01
2018-10-21T11:49:16.391Z,0.80
2018-10-21T11:50:16.933Z,1.12
2018-10-21T11:51:17.077Z,0.54
2018-10-21T11:52:17.017Z,0.61
2018-10-21T11:53:17.144Z,1.04
2018-10-21T11:54:17.441Z,3.48
2018-10-21T11:55:18.075Z,5.11
2018-10-21T11:56:17.752Z,3.84
2018-10-21T11:57:18.316Z,3.48
2018-10-21T11:58:18.680Z,3.02
2018-10-21T11:59:18.752Z,2.51
2018-10-21T12:00:18.871Z,2.31
2018-10-21T12:01:19.101Z,2.71
2018-10-21T12:02:19.227Z,1.69
2018-10-21T12:03:19.470Z,0.69
2018-10-21T12:04:19.641Z,0.97
2018-10-21T12:05:19.885Z,0.48
2018-10-21T12:06:20.101Z,1.51
2018-10-21T12:07:20.338Z,2.80
2018-10-21T12:08:20.480Z,1.04
2018-10-21T12:09:20.632Z,0.86
2018-10-21T12:10:20.809Z,1.93
2018-10-21T12:11:21.088Z,0.96
2018-10-21T12:12:21.371Z,0.62
2018-10-21T12:13:21.559Z,0.72
2018-10-21T12:14:21.741Z,1.62
2018-10-21T12:15:21.918Z,1.99
2018-10-21T12:16:22.282Z,1.39
2018-10-21T12:17:22.451Z,2.57
2018-10-21T12:18:22.583Z,1.52
2018-10-21T12:19:22.705Z,1.87
2018-10-21T12:20:22.806Z,1.56
2018-10-21T12:21:22.933Z,0.42
2018-10-21T12:22:23.125Z,0.85
2018-10-21T12:23:23.251Z,1.42
2018-10-21T12:24:23.360Z,1.76
2018-10-21T12:25:23.571Z,2.67
2018-10-21T12:26:23.626Z,1.86
2018-10-21T12:27:23.736Z,1.68
2018-10-21T12:28:23.858Z,2.38
2018-10-21T12:29:23.929Z,1.01
2018-10-21T12:30:24.028Z,1.16
2018-10-21T12:31:24.152Z,2.01
2018-10-21T12:32:24.205Z,1.89
2018-10-21T12:33:24.256Z,1.54
2018-10-21T12:34:24.277Z,2.58
2018-10-21T12:35:24.284Z,2.51
2018-10-21T12:36:24.984Z,2.19
2018-10-21T12:37:24.835Z,1.03
2018-10-21T12:38:25.190Z,1.26
2018-10-21T12:39:25.694Z,1.15
2018-10-21T12:40:25.948Z,2.21
2018-10-21T12:41:26.379Z,1.46
2018-10-21T12:42:26.663Z,2.79
2018-10-21T12:43:27.031Z,3.63
2018-10-21T12:44:27.413Z,3.74
2018-10-21T12:45:27.848Z,2.16
2018-10-21T12:46:28.223Z,1.96
2018-10-21T12:47:28.509Z,0.97
2018-10-21T12:48:28.802Z,2.01
2018-10-21T12:49:29.193Z,2.28
2018-10-21T12:51:29.671Z,0.37
2018-10-21T12:52:29.953Z,0.70
2018-10-21T12:53:30.281Z,1.36
2018-10-21T12:54:30.590Z,1.47
2018-10-21T12:55:30.641Z,0.97
2018-10-21T12:56:30.901Z,0.31
2018-10-21T12:57:31.232Z,1.20
2018-10-21T12:58:31.507Z,4.47
2018-10-21T12:59:31.749Z,5.51
2018-10-21T13:00:32.005Z,2.46
2018-10-21T13:01:32.339Z,1.39
2018-10-21T13:02:32.592Z,2.22
2018-10-21T13:03:32.864Z,2.67
2018-10-21T13:04:33.432Z,2.35
2018-10-21T13:05:33.403Z,2.24
2018-10-21T13:06:34.031Z,3.00
2018-10-21T13:07:34.133Z,3.93
2018-10-21T13:08:34.279Z,2.96
2018-10-21T13:09:34.405Z,2.73
2018-10-21T13:10:34.498Z,3.27
2018-10-21T13:11:34.619Z,4.54
2018-10-21T13:12:34.698Z,3.54
2018-10-21T13:13:34.827Z,2.67
2018-10-21T13:14:35.161Z,0.63
2018-10-21T13:15:35.352Z,2.67
2018-10-21T13:16:35.530Z,3.58
2018-10-21T13:17:35.654Z,3.59
2018-10-21T13:18:35.808Z,1.62
2018-10-21T13:19:35.939Z,2.54
2018-10-21T13:20:36.020Z,3.11
2018-10-21T13:21:36.125Z,3.23
2018-10-21T13:22:36.272Z,3.77
2018-10-21T13:23:36.369Z,4.69
2018-10-21T13:24:36.530Z,2.71
2018-10-21T13:25:36.620Z,5.04
2018-10-21T13:26:36.705Z,3.71
2018-10-21T13:27:36.773Z,1.43
2018-10-21T13:28:36.907Z,2.51
2018-10-21T13:29:36.960Z,1.27